createdAt,value
2019-05-16T00:02:31.357Z,1.70
2019-05-16T00:05:14.220Z,1.80
2019-05-16T00:08:04.689Z,3.37
2019-05-16T00:10:48.713Z,1.80
2019-05-16T00:13:39.139Z,2.27
2019-05-16T00:16:21.759Z,2.47
2019-05-16T00:19:12.180Z,3.87
2019-05-16T00:21:55.419Z,3.17
2019-05-16T00:24:45.779Z,2.20
2019-05-16T00:27:29.007Z,1.80
2019-05-16T00:30:19.488Z,3.83
2019-05-16T00:33:02.098Z,4.00
2019-05-16T00:36:02.446Z,2.43
2019-05-16T00:38:57.855Z,2.90
2019-05-16T00:41:48.326Z,2.37
2019-05-16T00:44:30.952Z,1.97
2019-05-16T00:47:21.419Z,1.80
2019-05-16T00:50:04.549Z,2.60
2019-05-16T00:52:54.939Z,2.33
2019-05-16T00:55:38.928Z,4.23
2019-05-16T00:58:22.472Z,2.47
2019-05-16T01:01:12.917Z,2.10
2019-05-16T01:04:03.283Z,2.33
2019-05-16T01:06:48.372Z,2.77
2019-05-16T01:09:38.755Z,2.10
2019-05-16T01:12:21.709Z,1.77
2019-05-16T01:15:12.178Z,1.90
2019-05-16T01:17:55.512Z,3.13
2019-05-16T01:20:47.888Z,3.20
2019-05-16T01:23:50.179Z,2.17
2019-05-16T01:26:40.561Z,3.27
2019-05-16T01:29:23.271Z,2.03
2019-05-16T01:32:13.651Z,2.90
2019-05-16T01:34:58.766Z,2.40
2019-05-16T01:37:48.921Z,2.20
2019-05-16T01:40:53.519Z,2.83
2019-05-16T01:43:43.882Z,3.90
2019-05-16T01:46:28.500Z,2.30
2019-05-16T01:49:18.912Z,3.33
2019-05-16T01:52:02.263Z,1.97
2019-05-16T01:54:52.656Z,2.40
2019-05-16T01:57:35.990Z,3.67
2019-05-16T02:00:25.137Z,2.57
2019-05-16T02:03:11.218Z,2.20
2019-05-16T02:05:54.538Z,2.40
2019-05-16T02:08:44.907Z,2.40
2019-05-16T02:11:28.497Z,2.90
2019-05-16T02:14:18.995Z,2.50
2019-05-16T02:17:01.740Z,3.03
2019-05-16T02:19:52.094Z,3.07
2019-05-16T02:22:35.088Z,3.80
2019-05-16T02:25:27.591Z,2.10
2019-05-16T02:28:39.242Z,2.37
2019-05-16T02:31:22.958Z,2.87
2019-05-16T02:34:26.565Z,2.23
2019-05-16T02:37:25.885Z,2.20
2019-05-16T02:40:23.598Z,3.53
2019-05-16T02:43:13.967Z,2.30
2019-05-16T02:45:56.932Z,3.80
2019-05-16T02:49:00.810Z,2.37
2019-05-16T02:51:51.144Z,2.60
2019-05-16T02:54:54.627Z,2.33
2019-05-16T02:57:44.980Z,2.30
2019-05-16T03:03:40.363Z,2.00
2019-05-16T03:06:43.047Z,2.20
2019-05-16T03:09:53.871Z,1.90
2019-05-16T03:12:44.308Z,1.73
2019-05-16T03:15:34.676Z,1.93
2019-05-16T03:18:21.316Z,2.27
2019-05-16T03:21:30.915Z,4.20
2019-05-16T03:24:34.879Z,1.77
2019-05-16T03:27:25.263Z,3.37
2019-05-16T03:30:14.366Z,1.60
2019-05-16T03:33:05.131Z,1.60
2019-05-16T03:36:05.722Z,1.60
2019-05-16T03:38:56.095Z,1.97
2019-05-16T03:41:41.459Z,1.30
2019-05-16T03:44:23.880Z,1.40
2019-05-16T03:47:14.245Z,1.17
2019-05-16T03:50:17.360Z,1.17
2019-05-16T03:53:07.731Z,1.40
2019-05-16T03:55:51.627Z,2.23
2019-05-16T03:58:34.788Z,2.23
2019-05-16T04:01:25.176Z,1.20
2019-05-16T04:04:11.373Z,1.47
2019-05-16T04:07:01.355Z,3.27
2019-05-16T04:10:05.081Z,1.57
2019-05-16T04:12:55.439Z,1.30
2019-05-16T04:16:01.234Z,4.13
2019-05-16T04:18:51.391Z,2.70
2019-05-16T04:21:55.208Z,1.10
2019-05-16T04:24:45.585Z,2.07
2019-05-16T04:27:30.941Z,1.63
2019-05-16T04:30:22.037Z,1.73
2019-05-16T04:33:25.495Z,1.27
2019-05-16T04:36:15.841Z,1.53
2019-05-16T04:39:01.814Z,1.50
2019-05-16T04:41:51.444Z,1.50
2019-05-16T04:44:34.373Z,1.60
2019-05-16T04:47:24.734Z,2.07
2019-05-16T04:50:11.241Z,1.77
2019-05-16T04:53:01.415Z,1.60
2019-05-16T04:56:04.811Z,2.67
2019-05-16T04:58:55.191Z,3.87
2019-05-16T05:01:41.073Z,2.43
2019-05-16T05:04:30.805Z,1.20
2019-05-16T05:07:34.422Z,1.73
2019-05-16T05:10:24.799Z,1.70
2019-05-16T05:13:10.789Z,1.57
2019-05-16T05:16:01.314Z,1.50
2019-05-16T05:19:04.849Z,3.17
2019-05-16T05:21:55.198Z,3.33
2019-05-16T05:24:40.419Z,1.47
2019-05-16T05:27:30.462Z,2.60
2019-05-16T05:30:33.681Z,1.53
2019-05-16T05:33:24.119Z,4.03
2019-05-16T05:36:06.969Z,3.50
2019-05-16T05:39:09.082Z,2.73
2019-05-16T05:42:01.523Z,1.97
2019-05-16T05:44:44.331Z,5.67
2019-05-16T05:50:44.942Z,1.73
2019-05-16T05:53:35.290Z,3.47
2019-05-16T05:56:19.733Z,2.60
2019-05-16T05:59:11.371Z,4.13
2019-05-16T06:02:14.948Z,2.13
2019-05-16T06:04:46.222Z,4.20
2019-05-16T06:07:36.627Z,3.27
2019-05-16T06:10:19.941Z,4.13
2019-05-16T06:13:11.063Z,1.53
2019-05-16T06:16:15.384Z,1.60
2019-05-16T06:19:05.749Z,4.20
2019-05-16T06:21:50.331Z,5.60
2019-05-16T06:24:40.691Z,3.63
2019-05-16T06:27:23.977Z,1.40
2019-05-16T06:30:14.363Z,2.23
2019-05-16T06:32:57.096Z,2.43
2019-05-16T06:35:47.510Z,3.33
2019-05-16T06:38:30.157Z,3.27
2019-05-16T06:41:20.565Z,3.97
2019-05-16T06:44:03.574Z,2.93
2019-05-16T06:47:09.060Z,5.90
2019-05-16T06:50:00.253Z,3.17
2019-05-16T06:52:51.089Z,3.60
2019-05-16T06:55:34.569Z,3.53
2019-05-16T06:58:24.999Z,3.70
2019-05-16T07:01:09.694Z,4.10
2019-05-16T07:04:00.201Z,3.27
2019-05-16T07:07:04.188Z,6.23
2019-05-16T07:10:01.711Z,4.37
2019-05-16T07:13:00.786Z,2.13
2019-05-16T07:15:51.218Z,1.77
2019-05-16T07:18:35.347Z,2.80
2019-05-16T07:21:20.192Z,3.00
2019-05-16T07:24:10.933Z,6.23
2019-05-16T07:27:14.581Z,5.43
2019-05-16T07:30:05.325Z,3.60
2019-05-16T07:32:50.046Z,3.77
2019-05-16T07:35:40.235Z,2.10
2019-05-16T07:38:23.313Z,2.00
2019-05-16T07:41:14.125Z,3.93
2019-05-16T07:44:20.398Z,3.83
2019-05-16T07:47:11.287Z,1.73
2019-05-16T07:50:15.101Z,2.30
2019-05-16T07:53:05.513Z,2.60
2019-05-16T07:55:50.589Z,1.53
2019-05-16T07:58:33.017Z,1.60
2019-05-16T08:01:23.421Z,5.20
2019-05-16T08:04:06.605Z,3.13
2019-05-16T08:06:56.999Z,3.43
2019-05-16T08:09:40.043Z,2.00
2019-05-16T08:12:32.994Z,2.03
2019-05-16T08:15:35.324Z,3.27
2019-05-16T08:18:25.693Z,3.10
2019-05-16T08:21:10.950Z,1.60
2019-05-16T08:24:07.471Z,2.00
2019-05-16T08:27:06.352Z,3.33
2019-05-16T08:29:56.776Z,3.10
2019-05-16T08:32:42.098Z,4.40
2019-05-16T08:35:31.774Z,1.57
2019-05-16T08:38:15.231Z,2.80
2019-05-16T08:44:35.092Z,1.60
2019-05-16T08:47:25.610Z,4.73
2019-05-16T08:50:13.922Z,4.77
2019-05-16T08:52:54.205Z,6.67
2019-05-16T08:56:03.451Z,3.90
2019-05-16T08:58:46.470Z,2.97
2019-05-16T09:01:36.824Z,3.67
2019-05-16T09:04:43.920Z,2.20
2019-05-16T09:07:32.397Z,1.57
2019-05-16T09:10:45.899Z,3.40
2019-05-16T09:13:07.443Z,1.43
2019-05-16T09:15:50.799Z,3.00
2019-05-16T09:18:45.554Z,3.10
2019-05-16T09:21:47.478Z,2.70
2019-05-16T09:24:38.068Z,1.77
2019-05-16T09:27:21.541Z,3.03
2019-05-16T09:30:12.095Z,2.33
2019-05-16T09:32:55.350Z,1.87
2019-05-16T09:35:47.687Z,3.90
2019-05-16T09:38:49.997Z,2.67
2019-05-16T09:41:54.539Z,2.27
2019-05-16T09:44:47.570Z,2.60
2019-05-16T09:47:39.140Z,3.07
2019-05-16T09:50:43.143Z,2.50
2019-05-16T09:53:33.540Z,3.43
2019-05-16T09:56:16.827Z,3.50
2019-05-16T09:59:07.370Z,3.93
2019-05-16T10:01:50.767Z,2.70
2019-05-16T10:04:41.133Z,3.13
2019-05-16T10:07:23.709Z,1.93
2019-05-16T10:10:14.172Z,3.23
2019-05-16T10:12:57.176Z,2.27
2019-05-16T10:15:47.585Z,4.13
2019-05-16T10:18:30.279Z,2.73
2019-05-16T10:21:20.816Z,3.67
2019-05-16T10:24:03.495Z,2.63
2019-05-16T10:26:54.316Z,3.17
2019-05-16T10:30:01.172Z,3.47
2019-05-16T10:32:50.282Z,1.87
2019-05-16T10:35:32.903Z,4.80
2019-05-16T10:38:23.318Z,2.90
2019-05-16T10:41:07.328Z,3.27
2019-05-16T10:43:57.843Z,3.33
2019-05-16T10:46:40.549Z,2.73
2019-05-16T10:49:37.291Z,1.90
2019-05-16T10:52:37.314Z,4.13
2019-05-16T10:55:20.132Z,4.57
2019-05-16T10:58:10.593Z,3.23
2019-05-16T11:01:22.434Z,3.50
2019-05-16T11:03:48.840Z,3.03
2019-05-16T11:06:50.084Z,2.97
2019-05-16T11:09:53.495Z,2.60
2019-05-16T11:12:51.178Z,3.13
2019-05-16T11:15:37.415Z,4.30
2019-05-16T11:18:41.857Z,5.23
2019-05-16T11:21:32.242Z,4.83
2019-05-16T11:24:15.408Z,3.90
2019-05-16T11:26:47.351Z,2.83
2019-05-16T11:29:51.683Z,5.90
2019-05-16T11:32:42.084Z,3.83
2019-05-16T11:35:27.234Z,6.37
2019-05-16T11:38:17.991Z,5.00
2019-05-16T11:41:01.831Z,5.60
2019-05-16T11:43:52.243Z,5.57
2019-05-16T11:46:37.431Z,5.77
2019-05-16T11:49:27.673Z,8.83
2019-05-16T11:52:31.651Z,4.43
2019-05-16T11:55:22.246Z,5.00
2019-05-16T11:58:06.759Z,5.57
2019-05-16T12:00:57.710Z,5.20
2019-05-16T12:04:01.933Z,8.03
2019-05-16T12:06:52.313Z,5.67
2019-05-16T12:09:46.602Z,4.17
2019-05-16T12:12:27.849Z,4.27
2019-05-16T12:15:11.058Z,5.97
2019-05-16T12:18:05.013Z,5.27
2019-05-16T12:21:07.697Z,6.37
2019-05-16T12:23:58.353Z,4.50
2019-05-16T12:26:41.670Z,4.10
2019-05-16T12:29:32.051Z,2.80
2019-05-16T12:32:03.515Z,4.17
2019-05-16T12:34:54.124Z,3.23
2019-05-16T12:37:44.557Z,5.33
2019-05-16T12:40:49.593Z,5.20
2019-05-16T12:43:48.938Z,2.97
2019-05-16T12:46:47.260Z,4.30
2019-05-16T12:49:36.988Z,3.23
2019-05-16T12:52:20.407Z,6.83
2019-05-16T12:55:10.899Z,2.97
2019-05-16T12:57:58.738Z,4.70
2019-05-16T13:00:37.326Z,3.13
2019-05-16T13:03:27.940Z,4.83
2019-05-16T13:06:10.413Z,6.07
2019-05-16T13:09:00.798Z,3.30
2019-05-16T13:11:43.756Z,3.90
2019-05-16T13:14:37.303Z,3.27
2019-05-16T13:17:38.574Z,2.97
2019-05-16T13:20:28.952Z,4.67
2019-05-16T13:23:18.088Z,3.57
2019-05-16T13:26:07.022Z,2.67
2019-05-16T13:29:09.310Z,3.97
2019-05-16T13:31:59.663Z,4.03
2019-05-16T13:34:43.143Z,2.80
2019-05-16T13:37:33.547Z,4.77
2019-05-16T13:40:17.416Z,3.63
2019-05-16T13:43:10.174Z,3.07
2019-05-16T13:46:12.403Z,2.97
2019-05-16T13:48:54.959Z,3.70
2019-05-16T13:51:45.320Z,4.30
2019-05-16T13:54:28.395Z,3.47
2019-05-16T13:57:18.760Z,3.30
2019-05-16T14:00:01.750Z,4.70
2019-05-16T14:02:52.140Z,2.77
2019-05-16T14:05:37.890Z,4.20
2019-05-16T14:08:27.644Z,3.20
2019-05-16T14:11:10.922Z,2.43
2019-05-16T14:14:04.589Z,5.37
2019-05-16T14:17:14.134Z,6.33
2019-05-16T14:19:58.194Z,2.73
2019-05-16T14:22:41.591Z,3.57
2019-05-16T14:25:31.988Z,3.77
2019-05-16T14:28:17.125Z,3.27
2019-05-16T14:31:07.524Z,3.97
2019-05-16T14:33:50.808Z,3.37
2019-05-16T14:36:41.191Z,2.87
2019-05-16T14:39:28.130Z,4.03
2019-05-16T14:42:08.858Z,2.93
2019-05-16T14:45:10.386Z,4.40
2019-05-16T14:48:06.862Z,4.40
2019-05-16T14:50:57.472Z,3.10
2019-05-16T14:54:01.107Z,3.53
2019-05-16T14:56:51.496Z,3.30
2019-05-16T14:59:56.569Z,5.53
2019-05-16T15:02:47.999Z,3.60
2019-05-16T15:05:54.808Z,3.80
2019-05-16T15:08:43.545Z,4.13
2019-05-16T15:11:28.179Z,5.77
2019-05-16T15:14:18.271Z,4.67
2019-05-16T15:17:01.778Z,3.87
2019-05-16T15:19:52.146Z,3.53
2019-05-16T15:22:38.347Z,3.00
2019-05-16T15:25:28.198Z,3.63
2019-05-16T15:28:11.145Z,3.20
2019-05-16T15:31:01.505Z,3.17
2019-05-16T15:33:44.719Z,3.03
2019-05-16T15:36:37.259Z,5.93
2019-05-16T15:39:39.871Z,4.40
2019-05-16T15:42:30.224Z,6.00
2019-05-16T15:45:17.616Z,3.00
2019-05-16T15:48:08.575Z,3.70
2019-05-16T15:51:11.451Z,4.03
2019-05-16T15:57:31.039Z,3.03
2019-05-16T16:03:47.277Z,3.83
2019-05-16T16:06:49.847Z,2.60
2019-05-16T16:09:40.333Z,2.40
2019-05-16T16:12:23.351Z,2.73
2019-05-16T16:15:13.765Z,4.37
2019-05-16T16:17:58.838Z,3.77
2019-05-16T16:20:49.224Z,3.00
2019-05-16T16:23:32.384Z,3.73
2019-05-16T16:26:22.776Z,2.80
2019-05-16T16:29:07.301Z,3.37
2019-05-16T16:31:57.821Z,3.40
2019-05-16T16:34:41.299Z,4.13
2019-05-16T16:37:31.715Z,3.60
2019-05-16T16:40:17.402Z,4.20
2019-05-16T16:43:07.935Z,3.10
2019-05-16T16:46:13.538Z,4.70
2019-05-16T16:48:57.428Z,2.57
2019-05-16T16:51:48.219Z,3.93
2019-05-16T16:54:52.010Z,3.00
2019-05-16T16:57:42.384Z,5.83
2019-05-16T17:00:28.006Z,3.60
2019-05-16T17:03:17.774Z,6.27
2019-05-16T17:06:21.259Z,2.90
2019-05-16T17:09:11.641Z,4.77
2019-05-16T17:11:57.023Z,3.30
2019-05-16T17:14:47.038Z,4.37
2019-05-16T17:17:29.997Z,3.43
2019-05-16T17:20:20.717Z,4.00
2019-05-16T17:23:03.622Z,3.53
2019-05-16T17:25:56.428Z,6.90
2019-05-16T17:28:58.388Z,3.73
2019-05-16T17:31:55.809Z,3.83
2019-05-16T17:34:55.384Z,3.93
2019-05-16T17:37:46.671Z,4.07
2019-05-16T17:40:49.953Z,5.80
2019-05-16T17:43:59.375Z,3.67
2019-05-16T17:46:42.105Z,5.33
2019-05-16T17:49:32.533Z,4.27
2019-05-16T17:52:16.553Z,6.23
2019-05-16T17:55:27.831Z,4.10
2019-05-16T17:58:10.608Z,4.93
2019-05-16T18:01:01.053Z,3.70
2019-05-16T18:03:44.440Z,4.40
2019-05-16T18:06:36.972Z,5.37
2019-05-16T18:09:43.028Z,6.27
2019-05-16T18:12:52.931Z,6.27
2019-05-16T18:15:36.734Z,4.50
2019-05-16T18:18:19.435Z,5.07
2019-05-16T18:21:09.869Z,6.03
2019-05-16T18:23:52.902Z,6.03
2019-05-16T18:26:43.377Z,6.87
2019-05-16T18:29:36.352Z,7.63
2019-05-16T18:32:38.458Z,7.07
2019-05-16T18:35:28.810Z,7.63
2019-05-16T18:38:13.125Z,6.97
2019-05-16T18:44:21.705Z,9.23
2019-05-16T18:47:34.472Z,10.33
2019-05-16T18:50:18.389Z,8.20
2019-05-16T18:53:09.405Z,8.93
2019-05-16T18:55:52.629Z,7.80
2019-05-16T18:58:43.084Z,7.33
2019-05-16T19:01:26.938Z,7.73
2019-05-16T19:04:17.798Z,8.43
2019-05-16T19:07:27.318Z,9.20
2019-05-16T19:10:31.146Z,7.03
2019-05-16T19:13:21.624Z,7.83
2019-05-16T19:16:12.112Z,7.37
2019-05-16T19:18:56.554Z,7.37
2019-05-16T19:21:47.057Z,7.10
2019-05-16T19:24:29.886Z,9.13
2019-05-16T19:30:41.188Z,8.63
2019-05-16T19:33:24.681Z,8.13
2019-05-16T19:36:16.524Z,9.73
2019-05-16T19:39:19.235Z,9.17
2019-05-16T19:42:09.700Z,9.97
2019-05-16T19:44:52.776Z,9.30
2019-05-16T19:47:43.246Z,9.93
2019-05-16T19:50:26.703Z,9.67
2019-05-16T19:53:17.285Z,9.77
2019-05-16T19:56:00.773Z,9.67
2019-05-16T19:58:51.260Z,10.97
2019-05-16T20:01:22.603Z,12.33
2019-05-16T20:04:15.468Z,12.77
2019-05-16T20:07:26.378Z,12.70
2019-05-16T20:10:29.659Z,12.93
2019-05-16T20:13:19.519Z,13.87
2019-05-16T20:16:02.024Z,13.90
2019-05-16T20:18:46.626Z,15.10
2019-05-16T20:21:40.377Z,15.83
2019-05-16T20:24:42.808Z,16.67
2019-05-16T20:27:33.285Z,17.77
2019-05-16T20:30:17.097Z,18.53
2019-05-16T20:33:09.546Z,18.23
2019-05-16T20:36:12.310Z,18.30
2019-05-16T20:39:02.800Z,16.27
2019-05-16T20:41:47.524Z,16.80
2019-05-16T20:44:38.075Z,16.73
2019-05-16T20:47:20.835Z,16.57
2019-05-16T20:50:30.545Z,17.63
2019-05-16T20:53:13.772Z,16.10
2019-05-16T20:56:06.434Z,17.77
2019-05-16T20:59:08.685Z,17.27
2019-05-16T21:02:01.245Z,16.37
2019-05-16T21:04:32.615Z,16.90
2019-05-16T21:07:23.016Z,16.80
2019-05-16T21:10:07.912Z,15.97
2019-05-16T21:12:58.098Z,16.27
2019-05-16T21:15:41.029Z,15.53
2019-05-16T21:18:31.696Z,15.73
2019-05-16T21:21:16.614Z,15.50
2019-05-16T21:24:07.090Z,16.30
2019-05-16T21:27:11.069Z,15.17
2019-05-16T21:30:01.459Z,16.83
2019-05-16T21:32:46.996Z,16.27
2019-05-16T21:35:36.795Z,14.57
2019-05-16T21:38:19.928Z,16.33
2019-05-16T21:41:10.375Z,15.87
2019-05-16T21:44:13.137Z,16.20
2019-05-16T21:47:03.567Z,16.93
2019-05-16T21:49:47.186Z,16.53
2019-05-16T21:52:37.755Z,17.27
2019-05-16T21:55:20.812Z,18.30
2019-05-16T21:58:11.208Z,17.90
2019-05-16T22:00:56.685Z,18.60
2019-05-16T22:03:47.232Z,17.77
2019-05-16T22:06:30.034Z,18.27
2019-05-16T22:09:14.315Z,19.63
2019-05-16T22:12:06.676Z,18.73
2019-05-16T22:15:09.058Z,18.90
2019-05-16T22:17:59.434Z,19.80
2019-05-16T22:20:42.543Z,20.10
2019-05-16T22:23:32.953Z,19.30
2019-05-16T22:26:17.310Z,18.83
2019-05-16T22:29:00.331Z,17.80
2019-05-16T22:31:50.743Z,18.83
2019-05-16T22:34:34.263Z,17.37
2019-05-16T22:37:17.389Z,17.37
2019-05-16T22:40:08.070Z,18.70
2019-05-16T22:42:51.313Z,17.77
2019-05-16T22:45:41.680Z,18.80
2019-05-16T22:48:26.529Z,18.60
2019-05-16T22:51:09.302Z,17.97
2019-05-16T22:53:59.659Z,18.00
2019-05-16T22:56:42.427Z,19.20
2019-05-16T22:59:32.811Z,18.57
2019-05-16T23:02:16.812Z,18.77
2019-05-16T23:05:07.553Z,19.27
2019-05-16T23:08:02.133Z,18.40
2019-05-16T23:10:42.896Z,19.67
2019-05-16T23:13:26.618Z,19.07
2019-05-16T23:16:17.301Z,20.20
2019-05-16T23:19:00.047Z,18.33
2019-05-16T23:21:50.391Z,20.20
2019-05-16T23:24:33.593Z,20.40
2019-05-16T23:27:23.969Z,20.23
2019-05-16T23:30:07.628Z,20.93
2019-05-16T23:32:58.028Z,20.73
2019-05-16T23:35:40.668Z,20.43
2019-05-16T23:38:31.021Z,20.47
2019-05-16T23:41:14.547Z,21.13
2019-05-16T23:44:07.263Z,19.80
2019-05-16T23:47:10.152Z,20.33
2019-05-16T23:50:00.501Z,20.83
2019-05-16T23:52:43.434Z,19.67
2019-05-16T23:55:33.819Z,19.33
2019-05-16T23:58:16.397Z,20.40
